sensor_id;sensor_type;location;lat;lon;timestamp;temperature;humidity
20827;DHT22;10574;52.508;13.236;2023-04-08T00:02:13;5.50;99.90
20827;DHT22;10574;52.508;13.236;2023-04-08T00:04:41;5.40;99.90
20827;DHT22;10574;52.508;13.236;2023-04-08T00:07:09;5.50;99.90
20827;DHT22;10574;52.508;13.236;2023-04-08T00:09:36;5.40;99.90
20827;DHT22;10574;52.508;13.236;2023-04-08T00:12:04;5.40;99.90
20827;DHT22;10574;52.508;13.236;2023-04-08T00:14:32;5.40;99.90
20827;DHT22;10574;52.508;13.236;2023-04-08T00:16:59;5.40;99.90
20827;DHT22;10574;52.508;13.236;2023-04-08T00:19:27;5.50;99.90
20827;DHT22;10574;52.508;13.236;2023-04-08T00:21:54;5.50;99.90
20827;DHT22;10574;52.508;13.236;2023-04-08T00:24:22;5.50;99.90
20827;DHT22;10574;52.508;13.236;2023-04-08T00:26:50;5.50;99.90
20827;DHT22;10574;52.508;13.236;2023-04-08T00:29:37;5.60;99.90
20827;DHT22;10574;52.508;13.236;2023-04-08T00:32:05;5.50;99.90
20827;DHT22;10574;52.508;13.236;2023-04-08T00:34:33;5.50;99.90
20827;DHT22;10574;52.508;13.236;2023-04-08T00:37:01;5.50;99.90
20827;DHT22;10574;52.508;13.236;2023-04-08T00:39:28;5.50;99.90
20827;DHT22;10574;52.508;13.236;2023-04-08T00:41:56;5.50;99.90
20827;DHT22;10574;52.508;13.236;2023-04-08T00:44:23;5.50;99.90
20827;DHT22;10574;52.508;13.236;2023-04-08T00:46:51;5.50;99.90
20827;DHT22;10574;52.508;13.236;2023-04-08T00:49:19;5.50;99.90
20827;DHT22;10574;52.508;13.236;2023-04-08T00:51:47;5.40;99.90
20827;DHT22;10574;52.508;13.236;2023-04-08T00:54:14;5.50;99.90
20827;DHT22;10574;52.508;13.236;2023-04-08T00:56:43;5.40;99.90
20827;DHT22;10574;52.508;13.236;2023-04-08T00:59:11;5.40;99.90
20827;DHT22;10574;52.508;13.236;2023-04-08T01:04:39;5.50;99.90
20827;DHT22;10574;52.508;13.236;2023-04-08T01:07:19;5.40;99.90
20827;DHT22;10574;52.508;13.236;2023-04-08T01:09:49;5.40;99.90
20827;DHT22;10574;52.508;13.236;2023-04-08T01:12:24;5.50;99.90
20827;DHT22;10574;52.508;13.236;2023-04-08T01:15:02;5.50;99.90
20827;DHT22;10574;52.508;13.236;2023-04-08T01:17:27;5.50;99.90
20827;DHT22;10574;52.508;13.236;2023-04-08T01:19:57;5.50;99.90
20827;DHT22;10574;52.508;13.236;2023-04-08T01:25:23;5.40;99.90
20827;DHT22;10574;52.508;13.236;2023-04-08T01:27:52;5.40;99.90
20827;DHT22;10574;52.508;13.236;2023-04-08T01:30:23;5.40;99.90
20827;DHT22;10574;52.508;13.236;2023-04-08T01:32:53;5.30;99.90
20827;DHT22;10574;52.508;13.236;2023-04-08T01:35:22;5.40;99.90
20827;DHT22;10574;52.508;13.236;2023-04-08T01:37:51;5.40;99.90
20827;DHT22;10574;52.508;13.236;2023-04-08T01:40:19;5.40;99.90
20827;DHT22;10574;52.508;13.236;2023-04-08T01:42:48;5.40;99.90
20827;DHT22;10574;52.508;13.236;2023-04-08T01:45:17;5.40;99.90
20827;DHT22;10574;52.508;13.236;2023-04-08T01:47:46;5.40;99.90
20827;DHT22;10574;52.508;13.236;2023-04-08T01:50:15;5.40;99.90
20827;DHT22;10574;52.508;13.236;2023-04-08T01:52:45;5.40;99.90
20827;DHT22;10574;52.508;13.236;2023-04-08T01:55:13;5.40;99.90
20827;DHT22;10574;52.508;13.236;2023-04-08T01:57:43;5.40;99.90
20827;DHT22;10574;52.508;13.236;2023-04-08T02:00:13;5.40;99.90
20827;DHT22;10574;52.508;13.236;2023-04-08T02:02:42;5.40;99.90
20827;DHT22;10574;52.508;13.236;2023-04-08T02:05:10;5.30;99.90
20827;DHT22;10574;52.508;13.236;2023-04-08T02:07:40;5.30;99.90
20827;DHT22;10574;52.508;13.236;2023-04-08T02:10:07;5.30;99.90
20827;DHT22;10574;52.508;13.236;2023-04-08T02:12:35;5.30;99.90
20827;DHT22;10574;52.508;13.236;2023-04-08T02:15:03;5.30;99.90
20827;DHT22;10574;52.508;13.236;2023-04-08T02:17:53;5.40;99.90
20827;DHT22;10574;52.508;13.236;2023-04-08T02:20:23;5.40;99.90
20827;DHT22;10574;52.508;13.236;2023-04-08T02:22:56;5.40;99.90
20827;DHT22;10574;52.508;13.236;2023-04-08T02:25:24;5.50;99.90
20827;DHT22;10574;52.508;13.236;2023-04-08T02:27:52;5.40;99.90
20827;DHT22;10574;52.508;13.236;2023-04-08T02:30:21;5.50;99.90
20827;DHT22;10574;52.508;13.236;2023-04-08T02:32:51;5.50;99.90
20827;DHT22;10574;52.508;13.236;2023-04-08T02:35:20;5.40;99.90
20827;DHT22;10574;52.508;13.236;2023-04-08T02:37:48;5.40;99.90
20827;DHT22;10574;52.508;13.236;2023-04-08T02:40:23;5.50;99.90
20827;DHT22;10574;52.508;13.236;2023-04-08T02:42:51;5.40;99.90
20827;DHT22;10574;52.508;13.236;2023-04-08T02:45:19;5.40;99.90
20827;DHT22;10574;52.508;13.236;2023-04-08T02:47:47;5.40;99.90
20827;DHT22;10574;52.508;13.236;2023-04-08T02:50:15;5.40;99.90
20827;DHT22;10574;52.508;13.236;2023-04-08T02:52:42;5.40;99.90
20827;DHT22;10574;52.508;13.236;2023-04-08T02:55:10;5.40;99.90
20827;DHT22;10574;52.508;13.236;2023-04-08T02:57:40;5.40;99.90
20827;DHT22;10574;52.508;13.236;2023-04-08T03:00:09;5.40;99.90
20827;DHT22;10574;52.508;13.236;2023-04-08T03:02:37;5.40;99.90
20827;DHT22;10574;52.508;13.236;2023-04-08T03:05:05;5.40;99.90
20827;DHT22;10574;52.508;13.236;2023-04-08T03:07:33;5.30;99.90
20827;DHT22;10574;52.508;13.236;2023-04-08T03:10:01;5.40;99.90
20827;DHT22;10574;52.508;13.236;2023-04-08T03:12:28;5.40;99.90
20827;DHT22;10574;52.508;13.236;2023-04-08T03:14:56;5.40;99.90
20827;DHT22;10574;52.508;13.236;2023-04-08T03:17:24;5.40;99.90
20827;DHT22;10574;52.508;13.236;2023-04-08T03:19:52;5.40;99.90
20827;DHT22;10574;52.508;13.236;2023-04-08T03:22:19;5.40;99.90
20827;DHT22;10574;52.508;13.236;2023-04-08T03:24:47;5.40;99.90
20827;DHT22;10574;52.508;13.236;2023-04-08T03:27:14;5.40;99.90
20827;DHT22;10574;52.508;13.236;2023-04-08T03:29:42;5.50;99.90
20827;DHT22;10574;52.508;13.236;2023-04-08T03:32:11;5.50;99.90
20827;DHT22;10574;52.508;13.236;2023-04-08T03:34:42;5.50;99.90
20827;DHT22;10574;52.508;13.236;2023-04-08T03:37:10;5.50;99.90
20827;DHT22;10574;52.508;13.236;2023-04-08T03:39:37;5.40;99.90
20827;DHT22;10574;52.508;13.236;2023-04-08T03:42:05;5.40;99.90
20827;DHT22;10574;52.508;13.236;2023-04-08T03:44:32;5.40;99.90
20827;DHT22;10574;52.508;13.236;2023-04-08T03:47:00;5.40;99.90
20827;DHT22;10574;52.508;13.236;2023-04-08T03:49:28;5.30;99.90
20827;DHT22;10574;52.508;13.236;2023-04-08T03:51:56;5.30;99.90
20827;DHT22;10574;52.508;13.236;2023-04-08T03:54:23;5.30;99.90
20827;DHT22;10574;52.508;13.236;2023-04-08T03:56:51;5.30;99.90
20827;DHT22;10574;52.508;13.236;2023-04-08T03:59:18;5.30;99.90
20827;DHT22;10574;52.508;13.236;2023-04-08T04:01:46;5.30;99.90
20827;DHT22;10574;52.508;13.236;2023-04-08T04:04:14;5.40;99.90
20827;DHT22;10574;52.508;13.236;2023-04-08T04:06:41;5.40;99.90
20827;DHT22;10574;52.508;13.236;2023-04-08T04:09:09;5.30;99.90
20827;DHT22;10574;52.508;13.236;2023-04-08T04:11:37;5.50;99.90
20827;DHT22;10574;52.508;13.236;2023-04-08T04:14:04;5.50;99.90
20827;DHT22;10574;52.508;13.236;2023-04-08T04:16:32;5.50;99.90
20827;DHT22;10574;52.508;13.236;2023-04-08T04:19:00;5.50;99.90
20827;DHT22;10574;52.508;13.236;2023-04-08T04:21:27;5.50;99.90
20827;DHT22;10574;52.508;13.236;2023-04-08T04:23:55;5.50;99.90
20827;DHT22;10574;52.508;13.236;2023-04-08T04:26:22;5.50;99.90
20827;DHT22;10574;52.508;13.236;2023-04-08T04:28:50;5.50;99.90
20827;DHT22;10574;52.508;13.236;2023-04-08T04:31:19;5.50;99.90
20827;DHT22;10574;52.508;13.236;2023-04-08T04:33:52;5.50;99.90
20827;DHT22;10574;52.508;13.236;2023-04-08T04:36:20;5.50;99.90
20827;DHT22;10574;52.508;13.236;2023-04-08T04:38:48;5.50;99.90
20827;DHT22;10574;52.508;13.236;2023-04-08T04:41:17;5.50;99.90
20827;DHT22;10574;52.508;13.236;2023-04-08T04:43:44;5.50;99.90
20827;DHT22;10574;52.508;13.236;2023-04-08T04:46:12;5.50;99.90
20827;DHT22;10574;52.508;13.236;2023-04-08T04:48:40;5.50;99.90
20827;DHT22;10574;52.508;13.236;2023-04-08T04:51:07;5.50;99.90
20827;DHT22;10574;52.508;13.236;2023-04-08T04:53:35;5.60;99.90
20827;DHT22;10574;52.508;13.236;2023-04-08T04:56:03;5.60;99.90
20827;DHT22;10574;52.508;13.236;2023-04-08T04:58:30;5.60;99.90
20827;DHT22;10574;52.508;13.236;2023-04-08T05:00:58;5.50;99.90
20827;DHT22;10574;52.508;13.236;2023-04-08T05:03:25;5.60;99.90
20827;DHT22;10574;52.508;13.236;2023-04-08T05:05:53;5.60;99.90
20827;DHT22;10574;52.508;13.236;2023-04-08T05:08:21;5.60;99.90
20827;DHT22;10574;52.508;13.236;2023-04-08T05:10:49;5.60;99.90
20827;DHT22;10574;52.508;13.236;2023-04-08T05:13:17;5.60;99.90
20827;DHT22;10574;52.508;13.236;2023-04-08T05:15:45;5.60;99.90
20827;DHT22;10574;52.508;13.236;2023-04-08T05:18:13;5.60;99.90
20827;DHT22;10574;52.508;13.236;2023-04-08T05:20:41;5.70;99.90
20827;DHT22;10574;52.508;13.236;2023-04-08T05:23:08;5.60;99.90
20827;DHT22;10574;52.508;13.236;2023-04-08T05:25:36;5.60;99.90
20827;DHT22;10574;52.508;13.236;2023-04-08T05:28:04;5.60;99.90
20827;DHT22;10574;52.508;13.236;2023-04-08T05:30:31;5.70;99.90
20827;DHT22;10574;52.508;13.236;2023-04-08T05:32:59;5.60;99.90
20827;DHT22;10574;52.508;13.236;2023-04-08T05:35:27;5.60;99.90
20827;DHT22;10574;52.508;13.236;2023-04-08T05:37:55;5.60;99.90
20827;DHT22;10574;52.508;13.236;2023-04-08T05:40:23;5.60;99.90
20827;DHT22;10574;52.508;13.236;2023-04-08T05:42:50;5.60;99.90
20827;DHT22;10574;52.508;13.236;2023-04-08T05:45:18;5.60;99.90
20827;DHT22;10574;52.508;13.236;2023-04-08T05:47:46;5.60;99.90
20827;DHT22;10574;52.508;13.236;2023-04-08T05:50:13;5.60;99.90
20827;DHT22;10574;52.508;13.236;2023-04-08T05:52:44;5.70;99.90
20827;DHT22;10574;52.508;13.236;2023-04-08T05:55:13;5.70;99.90
20827;DHT22;10574;52.508;13.236;2023-04-08T05:57:41;5.70;99.90
20827;DHT22;10574;52.508;13.236;2023-04-08T06:00:09;5.70;99.90
20827;DHT22;10574;52.508;13.236;2023-04-08T06:02:37;5.80;99.90
20827;DHT22;10574;52.508;13.236;2023-04-08T06:05:05;5.70;99.90
20827;DHT22;10574;52.508;13.236;2023-04-08T06:07:33;5.80;99.90
20827;DHT22;10574;52.508;13.236;2023-04-08T06:10:01;5.80;99.90
20827;DHT22;10574;52.508;13.236;2023-04-08T06:12:29;5.70;99.90
20827;DHT22;10574;52.508;13.236;2023-04-08T06:14:56;5.70;99.90
20827;DHT22;10574;52.508;13.236;2023-04-08T06:17:24;5.80;99.90
20827;DHT22;10574;52.508;13.236;2023-04-08T06:19:51;5.70;99.90
20827;DHT22;10574;52.508;13.236;2023-04-08T06:22:19;5.80;99.90
20827;DHT22;10574;52.508;13.236;2023-04-08T06:24:47;5.70;99.90
20827;DHT22;10574;52.508;13.236;2023-04-08T06:27:15;5.80;99.90
20827;DHT22;10574;52.508;13.236;2023-04-08T06:29:42;5.90;99.90
20827;DHT22;10574;52.508;13.236;2023-04-08T06:32:10;6.00;99.90
20827;DHT22;10574;52.508;13.236;2023-04-08T06:34:38;6.00;99.90
20827;DHT22;10574;52.508;13.236;2023-04-08T06:37:06;6.00;99.90
20827;DHT22;10574;52.508;13.236;2023-04-08T06:39:34;6.00;99.90
20827;DHT22;10574;52.508;13.236;2023-04-08T06:42:02;6.00;99.90
20827;DHT22;10574;52.508;13.236;2023-04-08T06:44:29;6.00;99.90
20827;DHT22;10574;52.508;13.236;2023-04-08T06:46:57;6.10;99.90
20827;DHT22;10574;52.508;13.236;2023-04-08T06:49:24;6.10;99.90
20827;DHT22;10574;52.508;13.236;2023-04-08T06:51:52;6.20;99.90
20827;DHT22;10574;52.508;13.236;2023-04-08T06:54:20;6.30;99.90
20827;DHT22;10574;52.508;13.236;2023-04-08T06:56:48;6.30;99.90
20827;DHT22;10574;52.508;13.236;2023-04-08T06:59:16;6.30;99.90
20827;DHT22;10574;52.508;13.236;2023-04-08T07:01:43;6.40;99.90
20827;DHT22;10574;52.508;13.236;2023-04-08T07:04:12;6.30;99.90
20827;DHT22;10574;52.508;13.236;2023-04-08T07:06:39;6.30;99.90
20827;DHT22;10574;52.508;13.236;2023-04-08T07:09:07;6.40;99.90
20827;DHT22;10574;52.508;13.236;2023-04-08T07:11:34;6.40;99.90
20827;DHT22;10574;52.508;13.236;2023-04-08T07:14:02;6.40;99.90
20827;DHT22;10574;52.508;13.236;2023-04-08T07:16:30;6.30;99.90
20827;DHT22;10574;52.508;13.236;2023-04-08T07:18:57;6.40;99.90
20827;DHT22;10574;52.508;13.236;2023-04-08T07:21:25;6.30;99.90
20827;DHT22;10574;52.508;13.236;2023-04-08T07:23:52;6.40;99.90
20827;DHT22;10574;52.508;13.236;2023-04-08T07:26:20;6.50;99.90
20827;DHT22;10574;52.508;13.236;2023-04-08T07:28:48;6.60;99.90
20827;DHT22;10574;52.508;13.236;2023-04-08T07:31:17;6.70;99.90
20827;DHT22;10574;52.508;13.236;2023-04-08T07:33:45;6.60;99.90
20827;DHT22;10574;52.508;13.236;2023-04-08T07:36:13;6.70;99.90
20827;DHT22;10574;52.508;13.236;2023-04-08T07:38:43;6.80;99.90
20827;DHT22;10574;52.508;13.236;2023-04-08T07:41:11;6.80;99.90
20827;DHT22;10574;52.508;13.236;2023-04-08T07:43:38;6.90;99.90
20827;DHT22;10574;52.508;13.236;2023-04-08T07:46:06;6.90;99.90
20827;DHT22;10574;52.508;13.236;2023-04-08T07:48:34;7.00;99.90
20827;DHT22;10574;52.508;13.236;2023-04-08T07:51:04;7.10;99.90
20827;DHT22;10574;52.508;13.236;2023-04-08T07:53:32;7.00;99.90
20827;DHT22;10574;52.508;13.236;2023-04-08T07:56:00;7.10;99.90
20827;DHT22;10574;52.508;13.236;2023-04-08T07:58:29;7.20;99.90
20827;DHT22;10574;52.508;13.236;2023-04-08T08:00:57;7.30;99.90
20827;DHT22;10574;52.508;13.236;2023-04-08T08:03:25;7.20;99.90
20827;DHT22;10574;52.508;13.236;2023-04-08T08:05:53;7.20;99.90
20827;DHT22;10574;52.508;13.236;2023-04-08T08:08:20;7.30;99.90
20827;DHT22;10574;52.508;13.236;2023-04-08T08:10:48;7.30;99.90
20827;DHT22;10574;52.508;13.236;2023-04-08T08:13:15;7.30;99.90
20827;DHT22;10574;52.508;13.236;2023-04-08T08:15:44;7.20;99.90
20827;DHT22;10574;52.508;13.236;2023-04-08T08:18:12;7.40;99.90
20827;DHT22;10574;52.508;13.236;2023-04-08T08:20:40;7.30;99.90
20827;DHT22;10574;52.508;13.236;2023-04-08T08:23:07;7.40;99.90
20827;DHT22;10574;52.508;13.236;2023-04-08T08:25:35;7.30;99.90
20827;DHT22;10574;52.508;13.236;2023-04-08T08:28:02;7.40;99.90
20827;DHT22;10574;52.508;13.236;2023-04-08T08:30:30;7.50;99.90
20827;DHT22;10574;52.508;13.236;2023-04-08T08:32:58;7.50;99.90
20827;DHT22;10574;52.508;13.236;2023-04-08T08:35:26;7.50;99.90
20827;DHT22;10574;52.508;13.236;2023-04-08T08:37:53;7.70;99.90
20827;DHT22;10574;52.508;13.236;2023-04-08T08:40:21;7.80;99.90
20827;DHT22;10574;52.508;13.236;2023-04-08T08:42:50;7.90;99.90
20827;DHT22;10574;52.508;13.236;2023-04-08T08:45:19;8.00;99.90
20827;DHT22;10574;52.508;13.236;2023-04-08T08:47:47;8.00;99.90
20827;DHT22;10574;52.508;13.236;2023-04-08T08:50:15;8.00;99.90
20827;DHT22;10574;52.508;13.236;2023-04-08T08:52:51;8.00;99.90
20827;DHT22;10574;52.508;13.236;2023-04-08T08:55:19;8.00;99.90
20827;DHT22;10574;52.508;13.236;2023-04-08T08:57:50;8.30;99.90
20827;DHT22;10574;52.508;13.236;2023-04-08T09:00:18;8.30;99.90
20827;DHT22;10574;52.508;13.236;2023-04-08T09:02:45;8.40;99.90
20827;DHT22;10574;52.508;13.236;2023-04-08T09:05:13;8.50;99.90
20827;DHT22;10574;52.508;13.236;2023-04-08T09:07:40;8.60;99.90
20827;DHT22;10574;52.508;13.236;2023-04-08T09:10:08;8.80;99.90
20827;DHT22;10574;52.508;13.236;2023-04-08T09:12:51;8.80;99.90
20827;DHT22;10574;52.508;13.236;2023-04-08T09:15:07;8.60;99.90
20827;DHT22;10574;52.508;13.236;2023-04-08T09:17:37;8.80;99.90
20827;DHT22;10574;52.508;13.236;2023-04-08T09:20:09;9.20;99.90
20827;DHT22;10574;52.508;13.236;2023-04-08T09:22:56;9.20;99.90
20827;DHT22;10574;52.508;13.236;2023-04-08T09:25:28;9.20;99.90
20827;DHT22;10574;52.508;13.236;2023-04-08T09:27:56;9.10;99.90
20827;DHT22;10574;52.508;13.236;2023-04-08T09:30:24;9.00;99.90
20827;DHT22;10574;52.508;13.236;2023-04-08T09:32:55;8.80;99.90
20827;DHT22;10574;52.508;13.236;2023-04-08T09:35:23;8.60;99.90
20827;DHT22;10574;52.508;13.236;2023-04-08T09:37:51;8.60;99.90
20827;DHT22;10574;52.508;13.236;2023-04-08T09:40:19;8.90;99.90
20827;DHT22;10574;52.508;13.236;2023-04-08T09:42:48;9.00;99.90
20827;DHT22;10574;52.508;13.236;2023-04-08T09:45:18;9.10;99.90
20827;DHT22;10574;52.508;13.236;2023-04-08T09:47:56;9.30;99.90
20827;DHT22;10574;52.508;13.236;2023-04-08T09:50:26;9.30;99.90
20827;DHT22;10574;52.508;13.236;2023-04-08T09:53:04;9.30;99.90
20827;DHT22;10574;52.508;13.236;2023-04-08T09:55:29;9.20;99.90
20827;DHT22;10574;52.508;13.236;2023-04-08T09:58:08;8.80;99.90
20827;DHT22;10574;52.508;13.236;2023-04-08T10:00:37;8.60;99.90
20827;DHT22;10574;52.508;13.236;2023-04-08T10:03:14;8.60;99.90
20827;DHT22;10574;52.508;13.236;2023-04-08T10:05:40;8.50;99.90
20827;DHT22;10574;52.508;13.236;2023-04-08T10:08:09;8.70;99.90
20827;DHT22;10574;52.508;13.236;2023-04-08T10:10:38;8.80;99.90
20827;DHT22;10574;52.508;13.236;2023-04-08T10:13:07;8.90;99.90
20827;DHT22;10574;52.508;13.236;2023-04-08T10:15:35;8.90;99.90
20827;DHT22;10574;52.508;13.236;2023-04-08T10:20:41;9.20;99.90
20827;DHT22;10574;52.508;13.236;2023-04-08T10:23:10;9.20;99.90
20827;DHT22;10574;52.508;13.236;2023-04-08T10:25:40;9.20;99.90
20827;DHT22;10574;52.508;13.236;2023-04-08T10:30:51;9.30;99.90
20827;DHT22;10574;52.508;13.236;2023-04-08T10:36:07;9.20;99.90
20827;DHT22;10574;52.508;13.236;2023-04-08T10:38:29;9.10;99.90
20827;DHT22;10574;52.508;13.236;2023-04-08T10:40:58;9.20;99.90
20827;DHT22;10574;52.508;13.236;2023-04-08T10:43:25;9.20;99.90
20827;DHT22;10574;52.508;13.236;2023-04-08T10:45:54;9.30;99.90
20827;DHT22;10574;52.508;13.236;2023-04-08T10:48:23;9.60;99.90
20827;DHT22;10574;52.508;13.236;2023-04-08T10:50:57;9.70;99.90
20827;DHT22;10574;52.508;13.236;2023-04-08T10:53:32;10.00;99.90
20827;DHT22;10574;52.508;13.236;2023-04-08T10:56:13;10.00;99.90
20827;DHT22;10574;52.508;13.236;2023-04-08T10:58:50;10.30;99.90
20827;DHT22;10574;52.508;13.236;2023-04-08T11:01:19;10.40;99.90
20827;DHT22;10574;52.508;13.236;2023-04-08T11:03:47;10.40;99.90
20827;DHT22;10574;52.508;13.236;2023-04-08T11:06:15;10.40;99.90
20827;DHT22;10574;52.508;13.236;2023-04-08T11:08:43;10.40;99.90
20827;DHT22;10574;52.508;13.236;2023-04-08T11:11:10;10.40;99.90
20827;DHT22;10574;52.508;13.236;2023-04-08T11:13:40;10.30;99.90
20827;DHT22;10574;52.508;13.236;2023-04-08T11:16:08;10.40;99.90
20827;DHT22;10574;52.508;13.236;2023-04-08T11:18:39;10.40;99.90
20827;DHT22;10574;52.508;13.236;2023-04-08T11:21:10;10.40;99.90
20827;DHT22;10574;52.508;13.236;2023-04-08T11:23:38;10.50;99.90
20827;DHT22;10574;52.508;13.236;2023-04-08T11:26:06;10.30;99.90
20827;DHT22;10574;52.508;13.236;2023-04-08T11:28:34;10.30;99.90
20827;DHT22;10574;52.508;13.236;2023-04-08T11:31:02;10.50;99.90
20827;DHT22;10574;52.508;13.236;2023-04-08T11:33:31;10.60;99.90
20827;DHT22;10574;52.508;13.236;2023-04-08T11:36:01;10.70;99.90
20827;DHT22;10574;52.508;13.236;2023-04-08T11:38:31;10.60;99.90
20827;DHT22;10574;52.508;13.236;2023-04-08T11:40:59;10.90;99.90
20827;DHT22;10574;52.508;13.236;2023-04-08T11:43:27;10.90;99.90
20827;DHT22;10574;52.508;13.236;2023-04-08T11:45:55;10.80;99.90
20827;DHT22;10574;52.508;13.236;2023-04-08T11:48:23;10.90;99.90
20827;DHT22;10574;52.508;13.236;2023-04-08T11:51:01;10.70;99.90
20827;DHT22;10574;52.508;13.236;2023-04-08T11:53:30;10.70;99.90
20827;DHT22;10574;52.508;13.236;2023-04-08T11:55:57;10.90;99.90
20827;DHT22;10574;52.508;13.236;2023-04-08T11:58:27;10.60;99.90
20827;DHT22;10574;52.508;13.236;2023-04-08T12:00:54;10.70;99.90
20827;DHT22;10574;52.508;13.236;2023-04-08T12:03:22;10.80;99.90
20827;DHT22;10574;52.508;13.236;2023-04-08T12:05:50;10.90;99.90
20827;DHT22;10574;52.508;13.236;2023-04-08T12:08:17;11.00;99.90
20827;DHT22;10574;52.508;13.236;2023-04-08T12:10:45;11.30;99.90
20827;DHT22;10574;52.508;13.236;2023-04-08T12:13:13;11.20;99.90
20827;DHT22;10574;52.508;13.236;2023-04-08T12:15:41;11.40;99.90
20827;DHT22;10574;52.508;13.236;2023-04-08T12:18:08;11.40;99.90
20827;DHT22;10574;52.508;13.236;2023-04-08T12:20:36;11.60;99.90
20827;DHT22;10574;52.508;13.236;2023-04-08T12:23:04;11.60;99.90
20827;DHT22;10574;52.508;13.236;2023-04-08T12:25:33;11.60;99.90
20827;DHT22;10574;52.508;13.236;2023-04-08T12:28:01;11.50;99.90
20827;DHT22;10574;52.508;13.236;2023-04-08T12:30:29;11.30;99.90
20827;DHT22;10574;52.508;13.236;2023-04-08T12:32:57;11.10;99.90
20827;DHT22;10574;52.508;13.236;2023-04-08T12:35:25;10.80;99.90
20827;DHT22;10574;52.508;13.236;2023-04-08T12:37:52;10.90;99.90
20827;DHT22;10574;52.508;13.236;2023-04-08T12:40:20;11.10;99.90
20827;DHT22;10574;52.508;13.236;2023-04-08T12:42:48;11.20;99.90
20827;DHT22;10574;52.508;13.236;2023-04-08T12:45:16;11.10;99.90
20827;DHT22;10574;52.508;13.236;2023-04-08T12:47:44;11.20;99.90
20827;DHT22;10574;52.508;13.236;2023-04-08T12:50:12;11.20;99.90
20827;DHT22;10574;52.508;13.236;2023-04-08T12:52:40;11.30;99.90
20827;DHT22;10574;52.508;13.236;2023-04-08T12:55:09;11.60;99.90
20827;DHT22;10574;52.508;13.236;2023-04-08T12:57:36;11.50;99.90
20827;DHT22;10574;52.508;13.236;2023-04-08T13:00:05;11.70;99.90
20827;DHT22;10574;52.508;13.236;2023-04-08T13:02:33;11.80;99.90
20827;DHT22;10574;52.508;13.236;2023-04-08T13:05:00;11.80;99.90
20827;DHT22;10574;52.508;13.236;2023-04-08T13:07:28;12.10;99.90
20827;DHT22;10574;52.508;13.236;2023-04-08T13:09:56;12.20;99.90
20827;DHT22;10574;52.508;13.236;2023-04-08T13:12:23;12.20;99.90
20827;DHT22;10574;52.508;13.236;2023-04-08T13:14:52;11.90;99.90
20827;DHT22;10574;52.508;13.236;2023-04-08T13:20:09;12.00;99.90
20827;DHT22;10574;52.508;13.236;2023-04-08T13:22:37;12.10;99.90
20827;DHT22;10574;52.508;13.236;2023-04-08T13:25:07;12.20;99.90
20827;DHT22;10574;52.508;13.236;2023-04-08T13:27:35;12.00;99.90
20827;DHT22;10574;52.508;13.236;2023-04-08T13:30:02;12.10;99.90
20827;DHT22;10574;52.508;13.236;2023-04-08T13:32:30;12.10;99.90
20827;DHT22;10574;52.508;13.236;2023-04-08T13:34:58;11.80;99.90
20827;DHT22;10574;52.508;13.236;2023-04-08T13:37:25;11.50;99.90
20827;DHT22;10574;52.508;13.236;2023-04-08T13:39:54;11.60;99.90
20827;DHT22;10574;52.508;13.236;2023-04-08T13:42:22;11.60;99.90
20827;DHT22;10574;52.508;13.236;2023-04-08T13:44:50;11.70;99.90
20827;DHT22;10574;52.508;13.236;2023-04-08T13:47:18;11.80;99.90
20827;DHT22;10574;52.508;13.236;2023-04-08T13:49:46;12.10;99.90
20827;DHT22;10574;52.508;13.236;2023-04-08T13:52:13;12.20;99.90
20827;DHT22;10574;52.508;13.236;2023-04-08T13:54:41;12.30;99.90
20827;DHT22;10574;52.508;13.236;2023-04-08T13:57:09;12.50;99.90
20827;DHT22;10574;52.508;13.236;2023-04-08T13:59:37;12.70;99.90
20827;DHT22;10574;52.508;13.236;2023-04-08T14:02:05;12.50;99.90
20827;DHT22;10574;52.508;13.236;2023-04-08T14:04:32;12.40;99.90
20827;DHT22;10574;52.508;13.236;2023-04-08T14:07:00;12.50;99.90
20827;DHT22;10574;52.508;13.236;2023-04-08T14:09:28;12.60;99.90
20827;DHT22;10574;52.508;13.236;2023-04-08T14:11:56;12.60;99.90
20827;DHT22;10574;52.508;13.236;2023-04-08T14:14:24;12.40;99.90
20827;DHT22;10574;52.508;13.236;2023-04-08T14:16:52;12.30;99.90
20827;DHT22;10574;52.508;13.236;2023-04-08T14:19:19;12.50;99.90
20827;DHT22;10574;52.508;13.236;2023-04-08T14:21:47;12.60;99.90
20827;DHT22;10574;52.508;13.236;2023-04-08T14:24:15;12.60;99.90
20827;DHT22;10574;52.508;13.236;2023-04-08T14:26:42;12.60;99.90
20827;DHT22;10574;52.508;13.236;2023-04-08T14:29:10;12.50;99.90
20827;DHT22;10574;52.508;13.236;2023-04-08T14:31:38;12.30;99.90
20827;DHT22;10574;52.508;13.236;2023-04-08T14:34:06;12.40;99.90
20827;DHT22;10574;52.508;13.236;2023-04-08T14:36:34;12.60;99.90
20827;DHT22;10574;52.508;13.236;2023-04-08T14:39:02;12.80;99.90
20827;DHT22;10574;52.508;13.236;2023-04-08T14:41:29;13.10;99.90
20827;DHT22;10574;52.508;13.236;2023-04-08T14:43:57;13.20;99.90
20827;DHT22;10574;52.508;13.236;2023-04-08T14:46:25;12.80;99.90
20827;DHT22;10574;52.508;13.236;2023-04-08T14:48:53;12.90;99.90
20827;DHT22;10574;52.508;13.236;2023-04-08T14:51:21;12.70;99.90
20827;DHT22;10574;52.508;13.236;2023-04-08T14:53:48;12.40;99.90
20827;DHT22;10574;52.508;13.236;2023-04-08T14:56:16;12.10;99.90
20827;DHT22;10574;52.508;13.236;2023-04-08T14:58:44;12.10;99.90
20827;DHT22;10574;52.508;13.236;2023-04-08T15:01:11;12.30;99.90
20827;DHT22;10574;52.508;13.236;2023-04-08T15:03:39;12.40;99.90
20827;DHT22;10574;52.508;13.236;2023-04-08T15:06:07;12.50;99.90
20827;DHT22;10574;52.508;13.236;2023-04-08T15:08:34;12.60;99.90
20827;DHT22;10574;52.508;13.236;2023-04-08T15:11:02;12.70;99.90
20827;DHT22;10574;52.508;13.236;2023-04-08T15:13:30;12.80;99.90
20827;DHT22;10574;52.508;13.236;2023-04-08T15:15:57;12.90;99.90
20827;DHT22;10574;52.508;13.236;2023-04-08T15:18:26;13.00;99.90
20827;DHT22;10574;52.508;13.236;2023-04-08T15:20:53;13.10;99.90
20827;DHT22;10574;52.508;13.236;2023-04-08T15:23:21;13.10;99.90
20827;DHT22;10574;52.508;13.236;2023-04-08T15:25:49;13.00;99.90
20827;DHT22;10574;52.508;13.236;2023-04-08T15:28:17;13.00;99.90
20827;DHT22;10574;52.508;13.236;2023-04-08T15:30:45;12.80;99.90
20827;DHT22;10574;52.508;13.236;2023-04-08T15:33:12;12.60;99.90
20827;DHT22;10574;52.508;13.236;2023-04-08T15:35:40;12.60;99.90
20827;DHT22;10574;52.508;13.236;2023-04-08T15:38:09;12.80;99.90
20827;DHT22;10574;52.508;13.236;2023-04-08T15:40:37;13.00;99.90
20827;DHT22;10574;52.508;13.236;2023-04-08T15:43:08;12.90;99.90
20827;DHT22;10574;52.508;13.236;2023-04-08T15:45:42;12.80;99.90
20827;DHT22;10574;52.508;13.236;2023-04-08T15:48:11;12.70;99.90
20827;DHT22;10574;52.508;13.236;2023-04-08T15:50:39;12.70;99.90